This demonstration page uses our WeatherBlox Daily Observations layout. Learn more.

36.17497, -115.13722

Hourly Observations for May 9, 2018

Temp ( °F °C ) Dew Point ( °F °C ) Humidity (%) Winds ( mph kmh ) Pressure ( in mb ) Visibility ( mi km ) Precip ( " mm )
12:53 am 00:53 Clear 80 26.7 24 -4.4 13 13 NNE 5 7 29.8 1009 10 16.09344 0 0
1:53 am 01:53 Clear 82 27.8 18 -7.8 9 9 Calm 29.8 1009 10 16.09344 0 0
2:53 am 02:53 Clear 75 23.9 31 -0.6 20 20 WNW 5 7 29.8 1009 10 16.09344 0 0
3:53 am 03:53 Clear 73 22.8 29 -1.7 19 19 NW 3 6 29.83 1010 10 16.09344 0 0
4:53 am 04:53 Clear 74 23.3 27 -2.8 17 17 NW 5 7 29.8 1009 10 16.09344 0 0
5:53 am 05:53 Sunny 74 23.3 26 -3.3 17 17 W 3 6 29.83 1010 10 16.09344 0 0
6:53 am 06:53 Sunny 73 22.8 30 -1.1 20 20 Calm 29.83 1010 10 16.09344 0 0
7:53 am 07:53 Sunny 78 25.6 27 -2.8 15 15 Calm 29.83 1010 10 16.09344 0 0
8:53 am 08:53 Sunny 85 29.4 25 -3.9 11 11 N 5 7 29.85 1011 10 16.09344 0 0
9:53 am 09:53 Sunny 88 31.1 20 -6.7 8 8 SSE 5 7 29.83 1010 10 16.09344 0 0
10:53 am 10:53 Sunny 92 33.3 19 -7.2 7 7 SSE 3 6 29.83 1010 10 16.09344 0 0
11:53 am 11:53 Sunny 96 35.6 18 -7.8 6 6 SE 9 15 29.8 1009 10 16.09344 0 0
12:53 pm 12:53 Sunny 98 36.7 22 -5.6 6 6 SSE 10 17 29.77 1008 10 16.09344 0 0
1:53 pm 13:53 Sunny 102 38.9 13 -10.6 4 4 SW 15 24 29.71 1006 10 16.09344 0 0
2:53 pm 14:53 Sunny 102 38.9 14 -10 4 4 W 23 37 29.71 1006 10 16.09344 0 0
3:53 pm 15:53 Sunny 101 38.3 14 -10 4 4 WSW 22 35 29.68 1005 10 16.09344 0 0
4:53 pm 16:53 Sunny 102 38.9 19 -7.2 5 5 W 18 30 29.68 1005 10 16.09344 0 0
5:53 pm 17:53 Sunny 100 37.8 24 -4.4 7 7 W 12 19 29.68 1005 10 16.09344 0 0
6:53 pm 18:53 Sunny 99 37.2 24 -4.4 7 7 WSW 12 19 29.65 1004 10 16.09344 0 0
7:53 pm 19:53 Clear 96 35.6 22 -5.6 7 7 WSW 21 33 29.65 1004 10 16.09344 0 0
8:53 pm 20:53 Clear 93 33.9 21 -6.1 7 7 WSW 8 13 29.68 1005 10 16.09344 0 0
11:53 pm 23:53 Clear 88 31.1 28 -2.2 11 11 WSW 9 15 29.65 1004 10 16.09344 0 0

Powered by AerisWeather